Time;durP1;ratioP1;P1;durP2;ratioP2;P2;SDS_P1;SDS_P2;PMS_P1;PMS_P2;Temp;Humidity;BMP_temperature;BMP_pressure;BME280_temperature;BME280_humidity;BME280_pressure;Samples;Min_cycle;Max_cycle;Signal;HPM_P1;HPM_P2
2022/01/11 00:00:36;;;;;;;19.43;7.57;;;1.90;99.90;;;;;;4915324;29;20046;-87
2022/01/11 00:03:13;;;;;;;22.17;7.40;;;1.90;99.90;;;;;;4930885;29;20034;-90
2022/01/11 00:08:54;;;;;;;18.75;6.65;;;2.00;99.90;;;;;;4924356;29;20118;-87
2022/01/11 00:11:23;;;;;;;18.07;8.17;;;2.00;99.90;;;;;;4915702;29;20094;-89
2022/01/11 00:13:51;;;;;;;13.80;6.83;;;2.00;99.90;;;;;;4935026;29;20028;-89
2022/01/11 00:16:34;;;;;;;16.90;8.20;;;2.00;99.90;;;;;;4916744;29;20063;-89
2022/01/11 00:19:47;;;;;;;20.70;8.52;;;2.00;99.90;;;;;;4930021;29;20672;-88
2022/01/11 00:22:27;;;;;;;17.88;7.18;;;2.00;99.90;;;;;;4925085;29;20059;-88
2022/01/11 00:25:08;;;;;;;21.27;7.77;;;2.00;99.90;;;;;;4913449;29;20393;-88
2022/01/11 00:27:46;;;;;;;18.80;7.17;;;2.10;99.90;;;;;;4914267;29;20061;-87
2022/01/11 00:30:11;;;;;;;13.97;6.40;;;2.00;99.90;;;;;;4912838;29;20050;-87
2022/01/11 00:32:44;;;;;;;16.13;7.40;;;1.90;99.90;;;;;;4933113;29;20028;-88
2022/01/11 00:35:16;;;;;;;18.63;7.03;;;1.80;99.90;;;;;;4911770;29;20059;-90
2022/01/11 00:37:54;;;;;;;18.38;6.53;;;1.80;99.90;;;;;;4917121;29;20481;-89
2022/01/11 00:40:26;;;;;;;17.43;7.47;;;1.90;99.90;;;;;;4934516;29;20272;-89
2022/01/11 00:42:52;;;;;;;18.17;7.82;;;1.70;99.90;;;;;;4911663;29;20048;-88
2022/01/11 00:45:31;;;;;;;19.00;6.93;;;1.80;99.90;;;;;;4928357;29;20070;-87
2022/01/11 00:47:57;;;;;;;14.77;6.40;;;1.90;99.90;;;;;;4927214;29;20028;-86
2022/01/11 00:50:24;;;;;;;22.63;8.07;;;1.90;99.90;;;;;;4935342;29;20495;-87
2022/01/11 00:52:55;;;;;;;16.53;7.43;;;1.90;99.90;;;;;;4929375;29;20485;-88
2022/01/11 00:55:24;;;;;;;21.73;8.10;;;2.00;99.90;;;;;;4931071;29;20036;-88
2022/01/11 00:57:58;;;;;;;15.93;7.80;;;1.90;99.90;;;;;;4922320;29;20019;-89
2022/01/11 01:00:24;;;;;;;16.80;6.43;;;1.90;99.90;;;;;;4938749;29;20024;-89
2022/01/11 01:02:50;;;;;;;21.33;7.37;;;1.90;99.90;;;;;;4920567;29;20102;-89
2022/01/11 01:05:17;;;;;;;20.03;7.67;;;1.90;99.90;;;;;;4921841;29;20461;-89
2022/01/11 01:07:52;;;;;;;16.10;7.00;;;1.90;99.90;;;;;;4920789;29;20024;-89
2022/01/11 01:12:52;;;;;;;18.43;7.60;;;1.90;99.90;;;;;;4933554;29;20392;-89
2022/01/11 01:15:19;;;;;;;19.90;7.80;;;1.90;99.90;;;;;;4913657;29;20024;-89
2022/01/11 01:17:47;;;;;;;18.27;7.53;;;2.00;99.90;;;;;;4930772;29;20086;-89
2022/01/11 01:20:13;;;;;;;17.67;7.93;;;2.00;99.90;;;;;;4919213;29;20032;-89
2022/01/11 01:22:39;;;;;;;18.60;8.60;;;2.00;99.90;;;;;;4935495;29;20040;-88
2022/01/11 01:25:07;;;;;;;18.77;7.97;;;2.00;99.90;;;;;;4918442;29;20106;-89
2022/01/11 01:27:39;;;;;;;18.60;8.33;;;2.00;99.90;;;;;;4919277;29;20167;-88
2022/01/11 01:30:11;;;;;;;20.00;7.47;;;2.00;99.90;;;;;;4915517;29;20024;-89
2022/01/11 01:32:43;;;;;;;18.92;7.22;;;2.00;99.90;;;;;;4923737;29;20140;-88
2022/01/11 01:35:18;;;;;;;19.25;7.32;;;1.90;99.90;;;;;;4935504;29;20163;-89
2022/01/11 01:37:52;;;;;;;17.23;7.60;;;1.90;99.90;;;;;;4915380;29;20087;-86
2022/01/11 01:40:21;;;;;;;18.73;7.77;;;1.90;99.90;;;;;;4928329;29;20669;-89
2022/01/11 01:42:55;;;;;;;21.20;8.33;;;2.00;99.90;;;;;;4932782;29;20036;-88
2022/01/11 01:45:29;;;;;;;17.03;7.53;;;1.90;99.90;;;;;;4926233;29;20389;-89
2022/01/11 01:48:07;;;;;;;19.43;8.17;;;1.90;99.90;;;;;;4932871;29;20038;-89
2022/01/11 01:50:36;;;;;;;22.23;8.87;;;1.90;99.90;;;;;;4919677;29;20028;-87
2022/01/11 01:53:22;;;;;;;23.43;10.13;;;1.90;99.90;;;;;;4914490;29;20079;-88
2022/01/11 01:55:48;;;;;;;28.43;8.57;;;2.00;99.90;;;;;;5022354;23;20046;-89
2022/01/11 01:58:14;;;;;;;18.43;8.33;;;1.90;99.90;;;;;;4996388;28;20061;-89
2022/01/11 02:00:44;;;;;;;19.50;9.20;;;1.90;99.90;;;;;;5002876;28;20090;-89
2022/01/11 02:03:13;;;;;;;18.20;8.27;;;1.90;99.90;;;;;;4971404;28;21586;-89
2022/01/11 02:05:43;;;;;;;18.87;8.80;;;1.90;99.90;;;;;;4990005;28;20519;-88
2022/01/11 02:08:10;;;;;;;23.70;9.20;;;1.90;99.90;;;;;;4974617;28;20027;-89
2022/01/11 02:10:42;;;;;;;22.60;8.87;;;1.90;99.90;;;;;;4997839;28;20037;-89
2022/01/11 02:13:11;;;;;;;22.98;8.23;;;1.80;99.90;;;;;;4984817;28;20026;-89
2022/01/11 02:15:36;;;;;;;21.13;8.00;;;1.80;99.90;;;;;;4978820;28;20034;-89
2022/01/11 02:18:07;;;;;;;19.47;7.87;;;1.80;99.90;;;;;;4977235;28;20022;-89
2022/01/11 02:20:33;;;;;;;18.30;7.77;;;1.80;99.90;;;;;;4978285;28;20022;-89
2022/01/11 02:22:58;;;;;;;18.77;7.50;;;1.80;99.90;;;;;;4995096;28;20093;-89
2022/01/11 02:25:24;;;;;;;18.97;7.47;;;1.80;99.90;;;;;;4974428;28;20030;-89
2022/01/11 02:27:49;;;;;;;24.47;8.73;;;1.80;99.90;;;;;;4988707;28;20732;-90
2022/01/11 02:30:15;;;;;;;25.80;9.43;;;1.70;99.90;;;;;;4972593;28;20050;-89
2022/01/11 02:32:50;;;;;;;18.93;7.83;;;1.80;99.90;;;;;;4969237;28;20035;-89
2022/01/11 02:35:16;;;;;;;16.50;8.13;;;1.80;99.90;;;;;;4972173;28;20026;-90
2022/01/11 02:37:43;;;;;;;18.53;7.87;;;1.80;99.90;;;;;;4977461;28;20444;-90
2022/01/11 02:40:09;;;;;;;19.70;7.83;;;1.70;99.90;;;;;;4974357;28;20030;-90
2022/01/11 02:42:35;;;;;;;19.63;7.67;;;1.70;99.90;;;;;;4978238;28;20502;-89
2022/01/11 02:45:00;;;;;;;21.83;8.00;;;1.70;99.90;;;;;;4971345;28;20038;-90
2022/01/11 02:47:26;;;;;;;16.93;7.37;;;1.70;99.90;;;;;;4971313;28;20049;-89
2022/01/11 02:49:52;;;;;;;17.30;7.67;;;1.70;99.90;;;;;;4972694;28;20057;-90
2022/01/11 02:52:18;;;;;;;19.90;7.13;;;1.70;99.90;;;;;;4972926;28;20037;-90
2022/01/11 02:54:46;;;;;;;21.20;7.97;;;1.70;99.90;;;;;;4966035;28;20050;-89
2022/01/11 02:57:12;;;;;;;18.97;7.70;;;1.70;99.90;;;;;;4983342;28;20495;-89
2022/01/11 02:59:38;;;;;;;22.33;8.93;;;1.70;99.90;;;;;;4985470;28;20026;-89
2022/01/11 03:02:03;;;;;;;22.83;8.10;;;1.60;99.90;;;;;;4972486;28;20550;-88
2022/01/11 03:04:33;;;;;;;18.80;7.50;;;1.60;99.90;;;;;;4975807;28;20038;-90
2022/01/11 03:06:59;;;;;;;26.53;8.40;;;1.60;99.90;;;;;;4989610;28;20022;-89
2022/01/11 03:09:27;;;;;;;17.73;7.47;;;1.60;99.90;;;;;;4967435;28;20045;-89
2022/01/11 03:11:53;;;;;;;22.53;9.07;;;1.70;99.90;;;;;;4964832;28;20038;-89
2022/01/11 03:14:18;;;;;;;22.27;8.73;;;1.70;99.90;;;;;;4988726;28;20023;-89
2022/01/11 03:16:44;;;;;;;20.63;8.20;;;1.70;99.90;;;;;;4977052;28;20023;-89
2022/01/11 03:19:09;;;;;;;19.23;7.97;;;1.70;99.90;;;;;;4976659;28;20535;-89
2022/01/11 03:21:35;;;;;;;24.97;8.20;;;1.70;99.90;;;;;;4991394;28;20041;-89
2022/01/11 03:24:01;;;;;;;22.90;9.13;;;1.70;99.90;;;;;;4974203;28;20027;-89
2022/01/11 03:26:26;;;;;;;24.13;8.47;;;1.80;99.90;;;;;;4981644;28;20672;-90
2022/01/11 03:28:52;;;;;;;18.97;8.00;;;1.80;99.90;;;;;;4974576;28;20080;-89
2022/01/11 03:31:22;;;;;;;17.07;7.83;;;1.80;99.90;;;;;;4992819;28;20483;-89
2022/01/11 03:33:47;;;;;;;16.87;7.93;;;1.80;99.90;;;;;;4972078;28;20014;-89
2022/01/11 03:36:13;;;;;;;23.60;9.00;;;1.80;99.90;;;;;;4968327;28;20070;-89
2022/01/11 03:38:38;;;;;;;20.57;8.90;;;1.80;99.90;;;;;;4986548;28;20085;-90
2022/01/11 03:41:04;;;;;;;17.80;7.60;;;1.90;99.90;;;;;;4987266;28;20518;-89
2022/01/11 03:43:30;;;;;;;19.93;8.57;;;1.80;99.90;;;;;;4989582;28;20105;-89
2022/01/11 03:45:57;;;;;;;18.77;8.00;;;1.80;99.90;;;;;;4968869;28;20031;-89
2022/01/11 03:48:22;;;;;;;18.43;8.30;;;1.80;99.90;;;;;;4987496;28;20118;-89
2022/01/11 03:50:53;;;;;;;26.20;9.10;;;1.80;99.90;;;;;;4968664;28;20054;-89
2022/01/11 03:53:20;;;;;;;25.20;9.60;;;1.70;99.90;;;;;;4965839;28;20018;-88
2022/01/11 03:58:16;;;;;;;26.37;8.53;;;1.70;99.90;;;;;;4988230;28;20034;-89
2022/01/11 04:00:42;;;;;;;26.43;8.50;;;1.70;99.90;;;;;;4984584;28;20543;-88
2022/01/11 04:03:08;;;;;;;25.17;9.97;;;1.70;99.90;;;;;;4975963;28;20026;-90
2022/01/11 04:05:34;;;;;;;22.83;9.13;;;1.70;99.90;;;;;;4971546;28;20399;-89
2022/01/11 04:08:00;;;;;;;25.10;9.00;;;1.70;99.90;;;;;;4969507;28;20022;-90
2022/01/11 04:10:26;;;;;;;18.37;8.20;;;1.70;99.90;;;;;;4967271;28;20391;-90
2022/01/11 04:12:53;;;;;;;23.37;8.43;;;1.70;99.90;;;;;;4973748;28;20037;-89
2022/01/11 04:15:19;;;;;;;19.63;8.70;;;1.70;99.90;;;;;;4974840;28;20022;-89
2022/01/11 04:17:45;;;;;;;19.50;8.77;;;1.80;99.90;;;;;;4976264;28;20019;-89
2022/01/11 04:20:11;;;;;;;23.73;9.33;;;1.70;99.90;;;;;;4987496;28;20046;-89
2022/01/11 04:22:36;;;;;;;22.40;7.93;;;1.80;99.90;;;;;;4976530;28;20030;-90
2022/01/11 04:25:02;;;;;;;21.47;9.30;;;1.70;99.90;;;;;;4990938;28;20061;-89
2022/01/11 04:27:28;;;;;;;23.33;8.73;;;1.70;99.90;;;;;;4977155;28;20483;-89
2022/01/11 04:29:54;;;;;;;20.17;9.23;;;1.80;99.90;;;;;;4992305;28;20058;-89
2022/01/11 04:32:19;;;;;;;23.90;10.00;;;1.80;99.90;;;;;;4981381;28;20109;-89
2022/01/11 04:34:45;;;;;;;21.57;9.13;;;1.80;99.90;;;;;;4974371;28;20057;-90
2022/01/11 04:37:11;;;;;;;19.30;8.43;;;1.80;99.90;;;;;;4974473;28;20123;-89
2022/01/11 04:39:36;;;;;;;20.77;8.50;;;1.80;99.90;;;;;;4988526;28;20045;-88
2022/01/11 04:42:02;;;;;;;18.70;9.17;;;1.80;99.90;;;;;;4974040;28;20038;-89
2022/01/11 04:44:28;;;;;;;20.33;9.00;;;1.90;99.90;;;;;;4974339;28;20042;-89
2022/01/11 04:46:54;;;;;;;26.83;9.20;;;1.80;99.90;;;;;;4991258;28;20038;-89
2022/01/11 04:49:19;;;;;;;23.33;8.70;;;1.80;99.90;;;;;;4978289;28;20498;-89
2022/01/11 04:51:46;;;;;;;20.87;8.93;;;1.80;99.90;;;;;;4988556;28;20023;-90
2022/01/11 04:54:13;;;;;;;22.17;9.00;;;1.80;99.90;;;;;;4973451;28;20022;-89
2022/01/11 04:56:38;;;;;;;22.67;9.50;;;1.80;99.90;;;;;;4971950;28;20070;-90
2022/01/11 04:59:04;;;;;;;21.67;8.67;;;1.80;99.90;;;;;;4979607;28;20058;-89
2022/01/11 05:01:30;;;;;;;21.13;8.10;;;1.80;99.90;;;;;;4987989;28;20042;-90
2022/01/11 05:03:56;;;;;;;22.40;9.63;;;1.90;99.90;;;;;;4982162;28;20026;-90
2022/01/11 05:06:22;;;;;;;21.03;8.70;;;1.80;99.90;;;;;;4974957;28;20130;-90
2022/01/11 05:08:48;;;;;;;21.50;8.43;;;1.80;99.90;;;;;;4992598;28;20034;-90
2022/01/11 05:11:15;;;;;;;21.40;8.20;;;1.90;99.90;;;;;;4976902;28;20049;-90
2022/01/11 05:13:40;;;;;;;21.50;9.77;;;1.90;99.90;;;;;;4981066;28;20430;-90
2022/01/11 05:16:08;;;;;;;24.27;8.10;;;1.80;99.90;;;;;;4978269;28;20030;-90
2022/01/11 05:18:36;;;;;;;21.80;9.20;;;1.80;99.90;;;;;;5008065;28;20051;-89
2022/01/11 05:21:02;;;;;;;25.77;9.77;;;1.90;99.90;;;;;;4977646;28;20109;-88
2022/01/11 05:23:28;;;;;;;22.17;8.23;;;1.90;99.90;;;;;;4993080;28;20044;-88
2022/01/11 05:25:54;;;;;;;19.93;8.97;;;1.90;99.90;;;;;;4993552;28;20031;-89
2022/01/11 05:28:19;;;;;;;21.23;8.70;;;1.90;99.90;;;;;;5003538;28;20037;-88
2022/01/11 05:30:45;;;;;;;23.33;9.27;;;1.90;99.90;;;;;;4979239;28;20541;-89
2022/01/11 05:33:10;;;;;;;22.43;9.57;;;1.90;99.90;;;;;;4978488;28;20089;-88
2022/01/11 05:35:36;;;;;;;19.30;8.47;;;1.90;99.90;;;;;;4971924;28;20061;-88
2022/01/11 05:38:02;;;;;;;25.47;9.10;;;1.90;99.90;;;;;;4990479;28;20471;-89
2022/01/11 05:40:28;;;;;;;18.43;8.00;;;1.90;99.90;;;;;;4966965;28;20428;-89
2022/01/11 05:42:54;;;;;;;23.50;7.83;;;1.90;99.90;;;;;;4972944;28;20026;-89
2022/01/11 05:45:20;;;;;;;26.63;9.07;;;1.90;99.90;;;;;;4991925;28;20254;-90
2022/01/11 05:47:48;;;;;;;23.47;7.83;;;1.90;99.90;;;;;;4973957;28;20121;-87
2022/01/11 05:50:14;;;;;;;20.00;8.67;;;1.80;99.90;;;;;;4971782;28;20067;-87
2022/01/11 05:52:40;;;;;;;21.33;8.13;;;1.90;99.90;;;;;;4988166;28;20042;-87
2022/01/11 05:55:08;;;;;;;17.67;7.97;;;1.80;99.90;;;;;;4992355;28;20027;-85
2022/01/11 05:57:34;;;;;;;22.03;8.70;;;1.90;99.90;;;;;;4971822;28;20026;-87
2022/01/11 06:00:00;;;;;;;21.60;8.57;;;1.90;99.90;;;;;;4966220;28;20509;-87
2022/01/11 06:02:26;;;;;;;23.17;9.13;;;1.90;99.90;;;;;;4973135;28;20125;-87
2022/01/11 06:04:54;;;;;;;21.73;8.73;;;1.80;99.90;;;;;;4982875;28;20042;-86
2022/01/11 06:07:19;;;;;;;24.17;9.03;;;1.90;99.90;;;;;;4989256;28;20057;-86
2022/01/11 06:09:45;;;;;;;22.23;8.77;;;1.80;99.90;;;;;;4993585;28;20644;-85
2022/01/11 06:12:10;;;;;;;21.00;8.87;;;1.80;99.90;;;;;;4977184;28;20403;-87
2022/01/11 06:14:36;;;;;;;19.90;8.47;;;1.90;99.90;;;;;;4987128;28;20127;-87
2022/01/11 06:17:02;;;;;;;19.67;8.10;;;1.80;99.90;;;;;;4974868;28;20030;-87
2022/01/11 06:19:27;;;;;;;22.67;8.73;;;1.80;99.90;;;;;;4975515;28;20058;-86
2022/01/11 06:21:53;;;;;;;22.93;9.20;;;1.80;99.90;;;;;;4995215;28;20031;-87
2022/01/11 06:24:19;;;;;;;24.67;8.87;;;1.80;99.90;;;;;;4994055;28;20406;-87
2022/01/11 06:26:50;;;;;;;20.63;8.63;;;1.80;99.90;;;;;;4984136;28;20030;-86
2022/01/11 06:29:16;;;;;;;21.90;8.50;;;1.80;99.90;;;;;;4988280;28;20098;-85
2022/01/11 06:31:41;;;;;;;21.87;7.90;;;1.80;99.90;;;;;;4969452;28;20110;-86
2022/01/11 06:34:07;;;;;;;20.67;8.20;;;1.80;99.90;;;;;;4977474;28;20030;-85
2022/01/11 06:36:32;;;;;;;22.67;8.83;;;1.80;99.90;;;;;;4975514;28;20026;-86
2022/01/11 06:38:58;;;;;;;19.67;8.20;;;1.80;99.90;;;;;;4973423;28;20023;-86
2022/01/11 06:41:24;;;;;;;22.00;8.60;;;1.80;99.90;;;;;;4986836;28;20033;-86
2022/01/11 06:43:52;;;;;;;24.33;9.43;;;1.90;99.90;;;;;;4974652;28;20027;-87
2022/01/11 06:46:18;;;;;;;17.40;7.60;;;1.80;99.90;;;;;;4976104;28;20042;-86
2022/01/11 06:48:44;;;;;;;19.20;8.30;;;1.90;99.90;;;;;;4989292;28;20058;-86
2022/01/11 06:51:12;;;;;;;23.90;9.90;;;1.80;99.90;;;;;;4992848;28;20049;-86
2022/01/11 06:53:38;;;;;;;21.80;8.27;;;1.80;99.90;;;;;;4984762;28;20611;-86
2022/01/11 06:56:04;;;;;;;20.70;8.20;;;1.80;99.90;;;;;;4988408;28;20033;-86
2022/01/11 06:58:29;;;;;;;16.03;8.07;;;1.80;99.90;;;;;;4977360;28;20096;-86
2022/01/11 07:00:55;;;;;;;23.53;7.60;;;1.80;99.90;;;;;;4993054;28;20030;-86
2022/01/11 07:03:21;;;;;;;18.33;8.37;;;1.80;99.90;;;;;;4979481;28;20121;-84
2022/01/11 07:05:46;;;;;;;19.53;7.43;;;1.80;99.90;;;;;;4974430;28;20027;-86
2022/01/11 07:08:12;;;;;;;17.23;8.33;;;1.80;99.90;;;;;;4981913;28;20031;-85
2022/01/11 07:10:38;;;;;;;17.23;7.33;;;1.80;99.90;;;;;;4966100;28;20030;-86
2022/01/11 07:13:04;;;;;;;20.70;7.23;;;1.80;99.90;;;;;;4985144;28;20030;-85
2022/01/11 07:15:30;;;;;;;19.13;7.60;;;1.80;99.90;;;;;;4980771;28;20078;-86
2022/01/11 07:17:56;;;;;;;17.83;7.57;;;1.80;99.90;;;;;;4972335;28;20025;-87
2022/01/11 07:20:22;;;;;;;20.80;7.67;;;1.90;99.90;;;;;;4991213;28;20550;-86
2022/01/11 07:22:49;;;;;;;19.60;7.27;;;1.80;99.90;;;;;;4998245;28;20026;-88
2022/01/11 07:25:16;;;;;;;20.73;8.20;;;1.80;99.90;;;;;;4996435;28;20041;-86
2022/01/11 07:27:42;;;;;;;24.20;7.47;;;1.80;99.90;;;;;;4991964;28;20026;-87
2022/01/11 07:30:09;;;;;;;22.93;8.20;;;1.80;99.90;;;;;;4987589;28;20031;-87
2022/01/11 07:32:35;;;;;;;19.73;7.87;;;1.80;99.90;;;;;;4973721;28;20033;-87
2022/01/11 07:35:03;;;;;;;22.47;8.20;;;1.80;99.90;;;;;;4975216;28;20030;-87
2022/01/11 07:37:29;;;;;;;19.13;7.97;;;1.80;99.90;;;;;;4977137;28;20023;-87
2022/01/11 07:39:57;;;;;;;15.27;6.27;;;1.80;99.90;;;;;;4993934;28;20093;-87
2022/01/11 07:42:24;;;;;;;17.07;6.93;;;1.90;99.90;;;;;;4994934;28;20046;-86
2022/01/11 07:44:51;;;;;;;21.13;7.43;;;1.80;99.90;;;;;;4995476;28;20102;-86
2022/01/11 07:47:20;;;;;;;18.20;7.30;;;1.90;99.90;;;;;;4978301;28;20026;-87
2022/01/11 07:49:48;;;;;;;14.87;6.43;;;1.90;99.90;;;;;;4987394;28;20034;-88
2022/01/11 07:52:15;;;;;;;16.60;7.13;;;1.90;99.90;;;;;;4969633;28;20463;-88
2022/01/11 07:54:42;;;;;;;19.10;7.80;;;1.90;99.90;;;;;;4976021;28;20118;-87
2022/01/11 07:57:08;;;;;;;19.23;7.97;;;2.00;99.90;;;;;;4983822;28;20030;-87
2022/01/11 07:59:33;;;;;;;14.80;6.67;;;2.00;99.90;;;;;;4991011;28;20080;-87
2022/01/11 08:01:59;;;;;;;17.23;6.80;;;2.00;99.90;;;;;;4985277;28;20039;-87
2022/01/11 08:04:30;;;;;;;17.80;7.03;;;2.00;99.90;;;;;;4977261;28;20038;-88
2022/01/11 08:06:58;;;;;;;18.10;6.23;;;2.00;99.90;;;;;;4992735;28;20022;-88
2022/01/11 08:09:26;;;;;;;15.43;6.73;;;2.10;99.90;;;;;;4992053;28;20433;-88
2022/01/11 08:11:55;;;;;;;12.80;6.27;;;2.10;99.90;;;;;;4991080;28;20062;-87
2022/01/11 08:14:22;;;;;;;27.93;7.43;;;2.10;99.90;;;;;;4974144;28;20038;-88
2022/01/11 08:16:47;;;;;;;13.37;6.33;;;2.20;99.90;;;;;;4984238;28;20018;-87
2022/01/11 08:19:13;;;;;;;12.90;5.90;;;2.20;99.90;;;;;;4960034;28;20063;-87
2022/01/11 08:21:38;;;;;;;17.60;7.00;;;2.20;99.90;;;;;;4975069;28;20121;-87
2022/01/11 08:24:05;;;;;;;18.10;6.10;;;2.20;99.90;;;;;;4991016;28;20034;-87
2022/01/11 08:26:31;;;;;;;15.67;6.23;;;2.20;99.90;;;;;;4966009;28;20046;-87
2022/01/11 08:28:56;;;;;;;17.00;6.43;;;2.30;99.90;;;;;;4972794;28;20034;-87
2022/01/11 08:31:22;;;;;;;12.80;6.13;;;2.30;99.90;;;;;;4981321;28;20033;-86
2022/01/11 08:33:48;;;;;;;20.43;6.50;;;2.30;99.90;;;;;;4991049;28;20015;-87
2022/01/11 08:36:14;;;;;;;14.13;6.17;;;2.30;99.90;;;;;;4972267;28;20561;-87
2022/01/11 08:38:40;;;;;;;17.87;7.10;;;2.30;99.90;;;;;;4974474;28;20038;-87
2022/01/11 08:41:07;;;;;;;15.77;7.03;;;2.40;99.90;;;;;;4986126;28;20027;-87
2022/01/11 08:43:33;;;;;;;17.17;7.13;;;2.40;99.90;;;;;;4989453;28;20031;-87
2022/01/11 08:46:02;;;;;;;17.17;6.40;;;2.40;99.90;;;;;;4975212;28;20618;-87
2022/01/11 08:48:28;;;;;;;16.50;6.90;;;2.50;99.90;;;;;;4992001;28;20027;-86
2022/01/11 08:50:54;;;;;;;11.43;5.77;;;2.40;99.90;;;;;;4986349;28;20430;-87
2022/01/11 08:53:21;;;;;;;20.57;6.83;;;2.50;99.90;;;;;;4971731;28;20086;-87
2022/01/11 08:55:48;;;;;;;16.17;5.87;;;2.50;99.90;;;;;;4973063;28;20038;-87
2022/01/11 08:58:14;;;;;;;18.43;6.00;;;2.50;99.90;;;;;;4985379;28;20498;-87
2022/01/11 09:00:40;;;;;;;20.40;7.90;;;2.50;99.90;;;;;;4970616;28;20025;-87
2022/01/11 09:03:05;;;;;;;15.43;7.30;;;2.50;99.90;;;;;;4960547;28;20368;-87
2022/01/11 09:05:31;;;;;;;14.27;6.43;;;2.60;99.90;;;;;;4990393;28;20035;-87
2022/01/11 09:07:57;;;;;;;18.47;6.63;;;2.60;99.90;;;;;;4992171;28;20023;-87
2022/01/11 09:10:22;;;;;;;16.27;6.90;;;2.60;99.90;;;;;;4994748;28;20034;-87
2022/01/11 09:12:49;;;;;;;16.70;6.50;;;2.70;99.90;;;;;;4978309;28;20096;-88
2022/01/11 09:15:15;;;;;;;17.40;5.90;;;2.70;99.90;;;;;;4976494;28;20034;-88
2022/01/11 09:17:42;;;;;;;15.90;5.43;;;2.70;99.90;;;;;;4993708;28;20029;-87
2022/01/11 09:20:10;;;;;;;14.13;6.47;;;2.70;99.90;;;;;;4977406;28;20034;-87
2022/01/11 09:22:36;;;;;;;12.83;5.53;;;2.70;99.90;;;;;;4978035;28;20030;-87
2022/01/11 09:25:02;;;;;;;12.03;6.07;;;2.80;99.90;;;;;;4995009;28;20360;-88
2022/01/11 09:27:28;;;;;;;12.47;5.63;;;2.80;99.90;;;;;;4994211;28;20179;-87
2022/01/11 09:29:54;;;;;;;16.70;6.40;;;2.80;99.90;;;;;;4993808;28;20397;-88
2022/01/11 09:32:20;;;;;;;14.17;5.93;;;2.80;99.90;;;;;;4993800;28;20050;-88
2022/01/11 09:34:46;;;;;;;17.50;6.33;;;2.90;99.90;;;;;;4976036;28;20491;-88
2022/01/11 09:37:12;;;;;;;14.87;6.10;;;2.80;99.90;;;;;;4958472;28;20073;-87
2022/01/11 09:39:43;;;;;;;16.80;5.33;;;2.90;99.90;;;;;;4975443;28;20031;-87
2022/01/11 09:42:09;;;;;;;15.77;5.87;;;2.90;99.90;;;;;;4968855;28;20034;-88
2022/01/11 09:44:38;;;;;;;13.40;5.80;;;2.90;99.90;;;;;;4996833;28;20031;-87
2022/01/11 09:47:08;;;;;;;13.00;5.83;;;2.90;99.90;;;;;;4994269;28;20034;-87
2022/01/11 09:49:34;;;;;;;13.67;6.37;;;3.00;99.90;;;;;;4992264;28;20037;-87
2022/01/11 09:52:07;;;;;;;13.87;5.43;;;3.10;99.90;;;;;;4993411;28;20026;-88
2022/01/11 09:54:34;;;;;;;14.67;5.87;;;3.10;99.90;;;;;;4983735;28;20058;-87
2022/01/11 09:57:00;;;;;;;17.13;6.30;;;3.10;99.90;;;;;;4957725;28;20027;-88
2022/01/11 09:59:26;;;;;;;15.53;5.70;;;3.10;99.90;;;;;;4992774;28;20110;-88
2022/01/11 10:01:51;;;;;;;13.20;5.43;;;3.10;99.90;;;;;;4993231;28;20030;-88
2022/01/11 10:04:23;;;;;;;15.63;5.80;;;3.10;99.90;;;;;;4994575;28;20030;-88
2022/01/11 10:07:00;;;;;;;14.20;6.03;;;3.10;99.90;;;;;;4992936;28;20026;-88
2022/01/11 10:09:29;;;;;;;17.37;6.77;;;3.10;99.90;;;;;;4973457;28;20031;-88
2022/01/11 10:11:57;;;;;;;13.97;6.00;;;3.20;99.90;;;;;;4986584;28;20526;-87
2022/01/11 10:14:31;;;;;;;13.67;5.73;;;3.20;99.90;;;;;;4974048;28;20029;-89
2022/01/11 10:17:11;;;;;;;17.00;6.60;;;3.20;99.90;;;;;;4957724;28;20019;-88
2022/01/11 10:19:42;;;;;;;15.80;6.27;;;3.30;99.90;;;;;;4968708;28;20030;-87
2022/01/11 10:22:16;;;;;;;20.67;6.80;;;3.30;99.90;;;;;;4966120;28;20022;-88
2022/01/11 10:24:48;;;;;;;18.23;6.40;;;3.30;99.90;;;;;;4973934;28;20034;-89
2022/01/11 10:27:28;;;;;;;16.52;6.20;;;3.40;99.90;;;;;;4965549;28;20137;-87
2022/01/11 10:29:59;;;;;;;17.37;7.03;;;3.40;99.90;;;;;;4979496;28;20129;-88
2022/01/11 10:32:34;;;;;;;15.90;6.27;;;3.50;99.90;;;;;;4985249;28;20023;-88
2022/01/11 10:35:18;;;;;;;12.57;5.33;;;3.50;99.90;;;;;;4986016;28;20023;-88
2022/01/11 10:37:50;;;;;;;12.60;5.87;;;3.60;99.90;;;;;;4971936;28;20034;-87
2022/01/11 10:40:22;;;;;;;13.65;6.10;;;3.60;99.90;;;;;;4964454;28;20062;-88
2022/01/11 10:42:57;;;;;;;15.55;4.97;;;3.80;99.90;;;;;;4981007;28;20038;-88
2022/01/11 10:45:26;;;;;;;12.67;5.77;;;3.70;99.90;;;;;;4983045;28;20470;-88
2022/01/11 10:47:59;;;;;;;12.50;6.17;;;3.80;99.90;;;;;;4990798;28;20034;-88
2022/01/11 10:50:37;;;;;;;15.67;6.13;;;3.80;99.90;;;;;;4964947;28;20095;-88
2022/01/11 10:53:17;;;;;;;10.60;5.47;;;3.90;99.90;;;;;;4994766;28;20018;-87
2022/01/11 10:55:48;;;;;;;10.60;3.93;;;4.00;99.90;;;;;;4994920;28;20034;-88
2022/01/11 10:58:14;;;;;;;13.77;4.77;;;4.00;99.90;;;;;;4973680;28;20755;-87
2022/01/11 11:00:48;;;;;;;11.77;5.10;;;4.00;99.90;;;;;;4986164;28;20113;-88
2022/01/11 11:03:16;;;;;;;13.23;4.70;;;4.00;99.90;;;;;;4981113;28;20041;-88
2022/01/11 11:05:59;;;;;;;11.87;5.23;;;4.00;99.90;;;;;;4992965;28;20058;-88
2022/01/11 11:08:31;;;;;;;10.83;4.90;;;4.10;99.90;;;;;;4991996;28;20101;-88
2022/01/11 11:10:56;;;;;;;13.77;4.97;;;4.10;99.90;;;;;;4987592;28;20093;-87
2022/01/11 11:13:42;;;;;;;11.43;4.73;;;4.10;99.90;;;;;;4976072;28;20030;-88
2022/01/11 11:16:11;;;;;;;13.07;4.23;;;4.20;99.90;;;;;;4975482;28;20022;-88
2022/01/11 11:18:40;;;;;;;10.53;4.57;;;4.20;99.90;;;;;;4965096;28;20030;-88
2022/01/11 11:21:23;;;;;;;10.60;4.70;;;4.30;99.90;;;;;;4991510;28;20092;-88
2022/01/11 11:23:52;;;;;;;12.43;4.70;;;4.40;99.90;;;;;;4990604;28;20030;-89
2022/01/11 11:26:39;;;;;;;9.50;4.17;;;4.50;99.90;;;;;;4983421;28;20026;-88
2022/01/11 11:29:15;;;;;;;9.57;4.30;;;4.70;99.90;;;;;;4991561;28;20106;-89
2022/01/11 11:31:43;;;;;;;10.00;4.10;;;4.70;99.90;;;;;;4991089;28;20065;-88
2022/01/11 11:34:10;;;;;;;12.27;5.10;;;4.80;99.90;;;;;;4992172;28;20018;-88
2022/01/11 11:36:45;;;;;;;4.00;1.73;;;4.80;99.90;;;;;;4991261;28;20026;-88
2022/01/11 11:39:27;;;;;;;3.23;1.27;;;4.70;99.90;;;;;;4990916;28;20533;-88
2022/01/11 11:41:56;;;;;;;4.60;1.87;;;4.60;99.90;;;;;;4975185;28;20026;-88
2022/01/11 11:44:32;;;;;;;5.53;1.70;;;4.60;99.90;;;;;;4974805;28;20049;-87
2022/01/11 11:47:06;;;;;;;6.80;1.97;;;4.50;99.90;;;;;;4991650;28;20023;-88
2022/01/11 11:49:54;;;;;;;4.17;1.60;;;4.40;99.90;;;;;;4991112;28;20068;-88
2022/01/11 11:52:41;;;;;;;5.70;1.53;;;4.30;99.90;;;;;;4992895;28;20028;-88
2022/01/11 11:55:24;;;;;;;3.10;1.30;;;4.30;99.90;;;;;;4987560;28;20022;-89
2022/01/11 11:58:10;;;;;;;5.93;1.57;;;4.30;99.90;;;;;;4988038;28;20038;-89
2022/01/11 12:00:43;;;;;;;5.17;1.43;;;4.30;99.90;;;;;;4972232;28;20030;-89
2022/01/11 12:03:25;;;;;;;2.47;1.10;;;4.30;99.90;;;;;;4982027;28;20368;-89
2022/01/11 12:05:53;;;;;;;4.07;1.30;;;4.30;99.90;;;;;;4974458;28;20084;-88
2022/01/11 12:08:32;;;;;;;3.67;1.30;;;4.30;99.90;;;;;;4987989;28;20026;-88
2022/01/11 12:11:02;;;;;;;3.37;1.00;;;4.30;99.90;;;;;;4954354;28;20049;-89
2022/01/11 12:13:54;;;;;;;3.43;1.13;;;4.40;99.90;;;;;;4955719;28;20037;-88
2022/01/11 12:16:26;;;;;;;3.03;0.73;;;4.50;99.90;;;;;;4970564;28;20029;-88
2022/01/11 12:19:05;;;;;;;3.20;1.40;;;4.50;99.90;;;;;;4988424;28;20061;-89
2022/01/11 12:22:06;;;;;;;3.30;1.50;;;4.50;99.90;;;;;;4971238;28;20033;-88
2022/01/11 12:24:44;;;;;;;3.97;1.47;;;4.50;99.90;;;;;;4956192;28;20062;-88
2022/01/11 12:27:21;;;;;;;4.30;1.27;;;4.40;99.90;;;;;;4987927;28;20479;-88
2022/01/11 12:29:53;;;;;;;3.87;1.60;;;4.60;99.90;;;;;;4971326;28;20037;-89
2022/01/11 12:32:31;;;;;;;3.47;1.33;;;4.50;99.90;;;;;;4984085;28;20026;-89
2022/01/11 12:35:02;;;;;;;6.43;1.37;;;4.50;99.90;;;;;;4962244;28;20080;-88
2022/01/11 12:37:45;;;;;;;3.50;1.13;;;4.40;99.90;;;;;;4985660;28;20058;-89
2022/01/11 12:40:29;;;;;;;3.77;1.27;;;4.40;99.90;;;;;;4965807;28;20057;-88
2022/01/11 12:43:09;;;;;;;3.77;1.30;;;4.40;99.90;;;;;;4970834;28;20027;-88
2022/01/11 12:45:58;;;;;;;3.77;1.13;;;4.40;99.90;;;;;;4990595;28;20038;-88
2022/01/11 12:48:43;;;;;;;5.77;1.30;;;4.40;99.90;;;;;;4977928;28;20122;-88
2022/01/11 12:51:29;;;;;;;3.73;1.57;;;4.30;99.90;;;;;;4975843;28;20023;-88
2022/01/11 12:54:31;;;;;;;2.23;1.00;;;4.30;99.90;;;;;;4976830;28;20030;-88
2022/01/11 12:57:01;;;;;;;2.70;0.82;;;4.20;99.90;;;;;;4976481;28;20363;-88
2022/01/11 12:59:37;;;;;;;2.97;0.90;;;4.10;99.90;;;;;;4974336;28;20105;-88
2022/01/11 13:02:18;;;;;;;3.27;1.03;;;4.10;99.90;;;;;;4965961;28;20042;-87
2022/01/11 13:04:55;;;;;;;5.27;1.20;;;4.10;99.90;;;;;;4968918;28;20179;-89
2022/01/11 13:07:31;;;;;;;3.47;1.33;;;4.10;99.90;;;;;;4978376;28;20022;-87